sensor_id;sensor_type;location;lat;lon;timestamp;P1;durP1;ratioP1;P2;durP2;ratioP2
68923;SDS011;55961;52.156;20.942;2023-03-23T00:01:49;48.85;;;24.00;;
68923;SDS011;55961;52.156;20.942;2023-03-23T00:04:15;51.90;;;26.05;;
68923;SDS011;55961;52.156;20.942;2023-03-23T00:06:42;48.33;;;24.45;;
68923;SDS011;55961;52.156;20.942;2023-03-23T00:09:11;49.50;;;23.90;;
68923;SDS011;55961;52.156;20.942;2023-03-23T00:11:38;51.42;;;24.25;;
68923;SDS011;55961;52.156;20.942;2023-03-23T00:14:04;47.25;;;24.00;;
68923;SDS011;55961;52.156;20.942;2023-03-23T00:16:31;44.88;;;22.83;;
68923;SDS011;55961;52.156;20.942;2023-03-23T00:19:02;47.97;;;24.73;;
68923;SDS011;55961;52.156;20.942;2023-03-23T00:21:33;45.20;;;23.43;;
68923;SDS011;55961;52.156;20.942;2023-03-23T00:24:04;46.45;;;22.50;;
68923;SDS011;55961;52.156;20.942;2023-03-23T00:26:32;47.15;;;23.02;;
68923;SDS011;55961;52.156;20.942;2023-03-23T00:29:01;48.00;;;23.10;;
68923;SDS011;55961;52.156;20.942;2023-03-23T00:31:31;49.22;;;24.67;;
68923;SDS011;55961;52.156;20.942;2023-03-23T00:33:58;48.30;;;23.30;;
68923;SDS011;55961;52.156;20.942;2023-03-23T00:36:27;45.03;;;23.15;;
68923;SDS011;55961;52.156;20.942;2023-03-23T00:38:53;46.22;;;21.95;;
68923;SDS011;55961;52.156;20.942;2023-03-23T00:41:23;48.15;;;24.88;;
68923;SDS011;55961;52.156;20.942;2023-03-23T00:43:52;53.95;;;27.65;;
68923;SDS011;55961;52.156;20.942;2023-03-23T00:46:22;51.53;;;28.43;;
68923;SDS011;55961;52.156;20.942;2023-03-23T00:48:50;51.55;;;28.27;;
68923;SDS011;55961;52.156;20.942;2023-03-23T00:51:17;50.90;;;26.20;;
68923;SDS011;55961;52.156;20.942;2023-03-23T00:53:43;51.60;;;25.55;;
68923;SDS011;55961;52.156;20.942;2023-03-23T00:56:10;45.50;;;23.48;;
68923;SDS011;55961;52.156;20.942;2023-03-23T00:58:37;43.10;;;22.83;;
68923;SDS011;55961;52.156;20.942;2023-03-23T01:01:03;40.65;;;22.15;;
68923;SDS011;55961;52.156;20.942;2023-03-23T01:03:29;42.20;;;22.83;;
68923;SDS011;55961;52.156;20.942;2023-03-23T01:05:55;48.47;;;23.80;;
68923;SDS011;55961;52.156;20.942;2023-03-23T01:08:22;42.17;;;21.63;;
68923;SDS011;55961;52.156;20.942;2023-03-23T01:10:49;44.97;;;22.47;;
68923;SDS011;55961;52.156;20.942;2023-03-23T01:13:16;43.50;;;21.75;;
68923;SDS011;55961;52.156;20.942;2023-03-23T01:15:42;44.47;;;22.50;;
68923;SDS011;55961;52.156;20.942;2023-03-23T01:18:08;45.83;;;21.70;;
68923;SDS011;55961;52.156;20.942;2023-03-23T01:20:36;45.55;;;23.33;;
68923;SDS011;55961;52.156;20.942;2023-03-23T01:23:02;58.03;;;28.93;;
68923;SDS011;55961;52.156;20.942;2023-03-23T01:25:29;47.40;;;24.48;;
68923;SDS011;55961;52.156;20.942;2023-03-23T01:27:57;44.83;;;23.02;;
68923;SDS011;55961;52.156;20.942;2023-03-23T01:30:24;46.88;;;24.50;;
68923;SDS011;55961;52.156;20.942;2023-03-23T01:32:51;45.53;;;22.33;;
68923;SDS011;55961;52.156;20.942;2023-03-23T01:35:17;39.63;;;20.97;;
68923;SDS011;55961;52.156;20.942;2023-03-23T01:37:43;44.50;;;22.65;;
68923;SDS011;55961;52.156;20.942;2023-03-23T01:40:10;39.45;;;21.88;;
68923;SDS011;55961;52.156;20.942;2023-03-23T01:42:37;39.78;;;20.05;;
68923;SDS011;55961;52.156;20.942;2023-03-23T01:50:29;41.15;;;21.65;;
68923;SDS011;55961;52.156;20.942;2023-03-23T01:53:01;43.67;;;21.75;;
68923;SDS011;55961;52.156;20.942;2023-03-23T01:55:33;39.58;;;20.38;;
68923;SDS011;55961;52.156;20.942;2023-03-23T01:58:03;41.40;;;19.95;;
68923;SDS011;55961;52.156;20.942;2023-03-23T02:00:31;41.67;;;20.43;;
68923;SDS011;55961;52.156;20.942;2023-03-23T02:02:58;36.65;;;19.13;;
68923;SDS011;55961;52.156;20.942;2023-03-23T02:05:28;40.55;;;19.63;;
68923;SDS011;55961;52.156;20.942;2023-03-23T02:07:59;36.22;;;17.92;;
68923;SDS011;55961;52.156;20.942;2023-03-23T02:10:29;35.53;;;17.67;;
68923;SDS011;55961;52.156;20.942;2023-03-23T02:12:56;34.20;;;18.10;;
68923;SDS011;55961;52.156;20.942;2023-03-23T02:15:25;34.92;;;18.05;;
68923;SDS011;55961;52.156;20.942;2023-03-23T02:17:56;34.85;;;18.20;;
68923;SDS011;55961;52.156;20.942;2023-03-23T02:34:16;41.35;;;17.90;;
68923;SDS011;55961;52.156;20.942;2023-03-23T02:36:45;36.15;;;17.08;;
68923;SDS011;55961;52.156;20.942;2023-03-23T02:39:24;39.47;;;17.23;;
68923;SDS011;55961;52.156;20.942;2023-03-23T02:41:58;39.72;;;18.92;;
68923;SDS011;55961;52.156;20.942;2023-03-23T02:44:36;37.60;;;17.73;;
68923;SDS011;55961;52.156;20.942;2023-03-23T02:47:07;36.13;;;17.30;;
68923;SDS011;55961;52.156;20.942;2023-03-23T02:49:38;36.55;;;17.80;;
68923;SDS011;55961;52.156;20.942;2023-03-23T02:52:09;36.13;;;17.80;;
68923;SDS011;55961;52.156;20.942;2023-03-23T02:54:40;37.17;;;18.05;;
68923;SDS011;55961;52.156;20.942;2023-03-23T02:57:08;38.28;;;18.85;;
68923;SDS011;55961;52.156;20.942;2023-03-23T02:59:34;33.60;;;17.65;;
68923;SDS011;55961;52.156;20.942;2023-03-23T03:02:01;32.65;;;16.42;;
68923;SDS011;55961;52.156;20.942;2023-03-23T03:04:35;34.37;;;16.33;;
68923;SDS011;55961;52.156;20.942;2023-03-23T03:07:13;29.08;;;15.75;;
68923;SDS011;55961;52.156;20.942;2023-03-23T03:09:50;34.60;;;17.55;;
68923;SDS011;55961;52.156;20.942;2023-03-23T03:17:27;29.67;;;15.40;;
68923;SDS011;55961;52.156;20.942;2023-03-23T03:19:57;30.45;;;15.02;;
68923;SDS011;55961;52.156;20.942;2023-03-23T03:22:32;34.15;;;15.88;;
68923;SDS011;55961;52.156;20.942;2023-03-23T03:25:02;31.20;;;16.08;;
68923;SDS011;55961;52.156;20.942;2023-03-23T03:27:31;30.45;;;15.70;;
68923;SDS011;55961;52.156;20.942;2023-03-23T03:29:58;28.17;;;15.43;;
68923;SDS011;55961;52.156;20.942;2023-03-23T03:32:35;29.58;;;15.25;;
68923;SDS011;55961;52.156;20.942;2023-03-23T03:35:14;30.20;;;15.02;;
68923;SDS011;55961;52.156;20.942;2023-03-23T03:37:41;30.33;;;14.98;;
68923;SDS011;55961;52.156;20.942;2023-03-23T03:40:08;25.95;;;12.80;;
68923;SDS011;55961;52.156;20.942;2023-03-23T03:42:41;26.23;;;12.33;;
68923;SDS011;55961;52.156;20.942;2023-03-23T03:45:11;25.33;;;12.40;;
68923;SDS011;55961;52.156;20.942;2023-03-23T03:47:41;28.92;;;14.25;;
68923;SDS011;55961;52.156;20.942;2023-03-23T03:50:07;31.02;;;14.65;;
68923;SDS011;55961;52.156;20.942;2023-03-23T03:52:34;27.63;;;13.90;;
68923;SDS011;55961;52.156;20.942;2023-03-23T03:55:00;31.00;;;14.18;;
68923;SDS011;55961;52.156;20.942;2023-03-23T03:57:26;29.00;;;15.10;;
68923;SDS011;55961;52.156;20.942;2023-03-23T03:59:52;30.10;;;14.48;;
68923;SDS011;55961;52.156;20.942;2023-03-23T04:02:18;26.83;;;13.17;;
68923;SDS011;55961;52.156;20.942;2023-03-23T04:04:48;25.73;;;13.65;;
68923;SDS011;55961;52.156;20.942;2023-03-23T04:07:15;28.05;;;14.68;;
68923;SDS011;55961;52.156;20.942;2023-03-23T04:09:42;36.50;;;14.77;;
68923;SDS011;55961;52.156;20.942;2023-03-23T04:12:14;28.00;;;14.52;;
68923;SDS011;55961;52.156;20.942;2023-03-23T04:14:40;26.73;;;14.63;;
68923;SDS011;55961;52.156;20.942;2023-03-23T04:17:07;31.95;;;15.35;;
68923;SDS011;55961;52.156;20.942;2023-03-23T04:19:36;30.35;;;14.75;;
68923;SDS011;55961;52.156;20.942;2023-03-23T04:22:03;27.02;;;14.85;;
68923;SDS011;55961;52.156;20.942;2023-03-23T04:24:30;31.92;;;15.52;;
68923;SDS011;55961;52.156;20.942;2023-03-23T04:26:58;27.37;;;13.33;;
68923;SDS011;55961;52.156;20.942;2023-03-23T04:29:25;30.55;;;14.45;;
68923;SDS011;55961;52.156;20.942;2023-03-23T04:31:52;31.60;;;15.07;;
68923;SDS011;55961;52.156;20.942;2023-03-23T04:34:18;32.97;;;15.18;;
68923;SDS011;55961;52.156;20.942;2023-03-23T04:36:44;32.20;;;16.83;;
68923;SDS011;55961;52.156;20.942;2023-03-23T04:39:11;29.43;;;15.53;;
68923;SDS011;55961;52.156;20.942;2023-03-23T04:41:39;28.27;;;15.90;;
68923;SDS011;55961;52.156;20.942;2023-03-23T04:44:05;30.98;;;15.70;;
68923;SDS011;55961;52.156;20.942;2023-03-23T04:46:32;27.83;;;15.40;;
68923;SDS011;55961;52.156;20.942;2023-03-23T04:48:59;33.10;;;16.25;;
68923;SDS011;55961;52.156;20.942;2023-03-23T04:51:25;33.90;;;16.20;;
68923;SDS011;55961;52.156;20.942;2023-03-23T04:53:54;27.88;;;14.73;;
68923;SDS011;55961;52.156;20.942;2023-03-23T04:56:20;27.85;;;14.98;;
68923;SDS011;55961;52.156;20.942;2023-03-23T04:58:46;31.48;;;16.52;;
68923;SDS011;55961;52.156;20.942;2023-03-23T05:01:12;32.28;;;17.95;;
68923;SDS011;55961;52.156;20.942;2023-03-23T05:03:39;32.63;;;16.33;;
68923;SDS011;55961;52.156;20.942;2023-03-23T05:06:09;29.45;;;15.88;;
68923;SDS011;55961;52.156;20.942;2023-03-23T05:08:35;28.27;;;15.35;;
68923;SDS011;55961;52.156;20.942;2023-03-23T05:11:04;30.13;;;15.50;;
68923;SDS011;55961;52.156;20.942;2023-03-23T05:13:31;31.60;;;15.23;;
68923;SDS011;55961;52.156;20.942;2023-03-23T05:15:58;32.65;;;15.45;;
68923;SDS011;55961;52.156;20.942;2023-03-23T05:18:27;29.52;;;15.25;;
68923;SDS011;55961;52.156;20.942;2023-03-23T05:20:54;29.90;;;14.43;;
68923;SDS011;55961;52.156;20.942;2023-03-23T05:23:20;30.30;;;15.17;;
68923;SDS011;55961;52.156;20.942;2023-03-23T05:25:53;61.17;;;33.28;;
68923;SDS011;55961;52.156;20.942;2023-03-23T05:28:20;36.33;;;17.67;;
68923;SDS011;55961;52.156;20.942;2023-03-23T05:30:47;28.48;;;15.30;;
68923;SDS011;55961;52.156;20.942;2023-03-23T05:33:13;31.92;;;15.43;;
68923;SDS011;55961;52.156;20.942;2023-03-23T05:35:40;39.33;;;20.40;;
68923;SDS011;55961;52.156;20.942;2023-03-23T05:38:06;32.65;;;16.27;;
68923;SDS011;55961;52.156;20.942;2023-03-23T05:40:32;26.20;;;14.00;;
68923;SDS011;55961;52.156;20.942;2023-03-23T05:42:58;27.70;;;16.27;;
68923;SDS011;55961;52.156;20.942;2023-03-23T05:45:25;28.73;;;14.13;;
68923;SDS011;55961;52.156;20.942;2023-03-23T05:47:51;25.05;;;13.63;;
68923;SDS011;55961;52.156;20.942;2023-03-23T05:50:18;29.75;;;15.50;;
68923;SDS011;55961;52.156;20.942;2023-03-23T05:52:44;27.60;;;15.32;;
68923;SDS011;55961;52.156;20.942;2023-03-23T05:55:10;29.00;;;16.38;;
68923;SDS011;55961;52.156;20.942;2023-03-23T05:57:37;27.80;;;14.30;;
68923;SDS011;55961;52.156;20.942;2023-03-23T06:00:04;27.52;;;14.15;;
68923;SDS011;55961;52.156;20.942;2023-03-23T06:02:44;25.63;;;13.82;;
68923;SDS011;55961;52.156;20.942;2023-03-23T06:05:11;24.73;;;12.70;;
68923;SDS011;55961;52.156;20.942;2023-03-23T06:07:37;25.08;;;13.65;;
68923;SDS011;55961;52.156;20.942;2023-03-23T06:10:06;21.47;;;11.17;;
68923;SDS011;55961;52.156;20.942;2023-03-23T06:12:32;25.00;;;11.90;;
68923;SDS011;55961;52.156;20.942;2023-03-23T06:14:58;21.58;;;12.52;;
68923;SDS011;55961;52.156;20.942;2023-03-23T06:17:24;22.75;;;12.02;;
68923;SDS011;55961;52.156;20.942;2023-03-23T06:19:50;24.17;;;12.40;;
68923;SDS011;55961;52.156;20.942;2023-03-23T06:22:16;23.98;;;12.82;;
68923;SDS011;55961;52.156;20.942;2023-03-23T06:24:43;24.45;;;12.75;;
68923;SDS011;55961;52.156;20.942;2023-03-23T06:27:09;25.55;;;13.68;;
68923;SDS011;55961;52.156;20.942;2023-03-23T06:29:35;22.53;;;12.80;;
68923;SDS011;55961;52.156;20.942;2023-03-23T06:32:02;21.80;;;11.15;;
68923;SDS011;55961;52.156;20.942;2023-03-23T06:34:30;21.00;;;11.98;;
68923;SDS011;55961;52.156;20.942;2023-03-23T06:36:57;23.65;;;12.05;;
68923;SDS011;55961;52.156;20.942;2023-03-23T06:39:24;22.55;;;12.27;;
68923;SDS011;55961;52.156;20.942;2023-03-23T06:41:50;22.77;;;12.43;;
68923;SDS011;55961;52.156;20.942;2023-03-23T06:44:16;22.27;;;10.88;;
68923;SDS011;55961;52.156;20.942;2023-03-23T06:46:42;22.80;;;12.70;;
68923;SDS011;55961;52.156;20.942;2023-03-23T06:49:08;25.40;;;11.05;;
68923;SDS011;55961;52.156;20.942;2023-03-23T06:51:35;23.63;;;11.93;;
68923;SDS011;55961;52.156;20.942;2023-03-23T06:54:02;20.93;;;11.47;;
68923;SDS011;55961;52.156;20.942;2023-03-23T06:56:28;21.75;;;11.15;;
68923;SDS011;55961;52.156;20.942;2023-03-23T06:58:55;18.88;;;11.35;;
68923;SDS011;55961;52.156;20.942;2023-03-23T07:01:21;25.08;;;12.95;;
68923;SDS011;55961;52.156;20.942;2023-03-23T07:03:47;19.07;;;10.80;;
68923;SDS011;55961;52.156;20.942;2023-03-23T07:06:14;20.27;;;9.85;;
68923;SDS011;55961;52.156;20.942;2023-03-23T07:08:40;17.40;;;9.65;;
68923;SDS011;55961;52.156;20.942;2023-03-23T07:11:06;22.90;;;10.38;;
68923;SDS011;55961;52.156;20.942;2023-03-23T07:13:33;19.30;;;9.77;;
68923;SDS011;55961;52.156;20.942;2023-03-23T07:15:59;16.37;;;9.30;;
68923;SDS011;55961;52.156;20.942;2023-03-23T07:18:26;17.67;;;9.32;;
68923;SDS011;55961;52.156;20.942;2023-03-23T07:20:52;20.23;;;10.73;;
68923;SDS011;55961;52.156;20.942;2023-03-23T07:23:19;18.83;;;10.55;;
68923;SDS011;55961;52.156;20.942;2023-03-23T07:25:46;15.13;;;9.43;;
68923;SDS011;55961;52.156;20.942;2023-03-23T07:28:14;18.77;;;9.35;;
68923;SDS011;55961;52.156;20.942;2023-03-23T07:30:41;16.95;;;9.75;;
68923;SDS011;55961;52.156;20.942;2023-03-23T07:33:07;19.85;;;9.57;;
68923;SDS011;55961;52.156;20.942;2023-03-23T07:35:34;14.27;;;8.90;;
68923;SDS011;55961;52.156;20.942;2023-03-23T07:38:01;15.77;;;8.10;;
68923;SDS011;55961;52.156;20.942;2023-03-23T07:40:28;17.20;;;8.73;;
68923;SDS011;55961;52.156;20.942;2023-03-23T07:42:55;16.70;;;8.25;;
68923;SDS011;55961;52.156;20.942;2023-03-23T07:45:23;15.43;;;8.35;;
68923;SDS011;55961;52.156;20.942;2023-03-23T07:47:50;15.68;;;9.40;;
68923;SDS011;55961;52.156;20.942;2023-03-23T07:50:16;17.60;;;9.50;;
68923;SDS011;55961;52.156;20.942;2023-03-23T07:52:43;19.00;;;8.43;;
68923;SDS011;55961;52.156;20.942;2023-03-23T07:55:11;16.90;;;8.55;;
68923;SDS011;55961;52.156;20.942;2023-03-23T07:57:43;15.93;;;7.93;;
68923;SDS011;55961;52.156;20.942;2023-03-23T08:00:10;14.27;;;8.50;;
68923;SDS011;55961;52.156;20.942;2023-03-23T08:02:45;15.30;;;7.78;;
68923;SDS011;55961;52.156;20.942;2023-03-23T08:05:12;16.00;;;8.93;;
68923;SDS011;55961;52.156;20.942;2023-03-23T08:07:39;14.55;;;8.13;;
68923;SDS011;55961;52.156;20.942;2023-03-23T08:10:05;15.38;;;7.45;;
68923;SDS011;55961;52.156;20.942;2023-03-23T08:12:36;17.07;;;7.87;;
68923;SDS011;55961;52.156;20.942;2023-03-23T08:15:04;15.25;;;6.25;;
68923;SDS011;55961;52.156;20.942;2023-03-23T08:17:32;15.63;;;8.38;;
68923;SDS011;55961;52.156;20.942;2023-03-23T08:19:59;15.52;;;7.72;;
68923;SDS011;55961;52.156;20.942;2023-03-23T08:22:26;12.45;;;7.25;;
68923;SDS011;55961;52.156;20.942;2023-03-23T08:24:54;10.37;;;6.07;;
68923;SDS011;55961;52.156;20.942;2023-03-23T08:27:20;12.00;;;7.15;;
68923;SDS011;55961;52.156;20.942;2023-03-23T08:29:46;11.38;;;6.13;;
68923;SDS011;55961;52.156;20.942;2023-03-23T08:32:13;10.75;;;5.10;;
68923;SDS011;55961;52.156;20.942;2023-03-23T08:34:40;11.20;;;5.43;;
68923;SDS011;55961;52.156;20.942;2023-03-23T08:37:07;15.32;;;7.40;;
68923;SDS011;55961;52.156;20.942;2023-03-23T08:39:34;13.75;;;7.05;;
68923;SDS011;55961;52.156;20.942;2023-03-23T08:42:00;12.55;;;6.47;;
68923;SDS011;55961;52.156;20.942;2023-03-23T08:44:26;10.25;;;4.72;;
68923;SDS011;55961;52.156;20.942;2023-03-23T08:46:54;11.80;;;4.80;;
68923;SDS011;55961;52.156;20.942;2023-03-23T08:49:22;8.85;;;5.03;;
68923;SDS011;55961;52.156;20.942;2023-03-23T08:51:49;10.55;;;5.85;;
68923;SDS011;55961;52.156;20.942;2023-03-23T08:54:15;11.50;;;5.45;;
68923;SDS011;55961;52.156;20.942;2023-03-23T08:56:42;9.38;;;5.15;;
68923;SDS011;55961;52.156;20.942;2023-03-23T08:59:08;11.17;;;5.00;;
68923;SDS011;55961;52.156;20.942;2023-03-23T09:01:35;10.82;;;5.00;;
68923;SDS011;55961;52.156;20.942;2023-03-23T09:04:01;11.27;;;5.07;;
68923;SDS011;55961;52.156;20.942;2023-03-23T09:06:27;10.25;;;5.90;;
68923;SDS011;55961;52.156;20.942;2023-03-23T09:08:53;10.43;;;5.20;;
68923;SDS011;55961;52.156;20.942;2023-03-23T09:11:21;9.80;;;4.88;;
68923;SDS011;55961;52.156;20.942;2023-03-23T09:13:47;8.85;;;5.05;;
68923;SDS011;55961;52.156;20.942;2023-03-23T09:16:13;10.20;;;5.55;;
68923;SDS011;55961;52.156;20.942;2023-03-23T09:18:39;13.67;;;6.03;;
68923;SDS011;55961;52.156;20.942;2023-03-23T09:21:05;17.23;;;5.43;;
68923;SDS011;55961;52.156;20.942;2023-03-23T09:23:31;9.65;;;5.53;;
68923;SDS011;55961;52.156;20.942;2023-03-23T09:25:59;11.63;;;4.07;;
68923;SDS011;55961;52.156;20.942;2023-03-23T09:28:26;9.77;;;4.03;;
68923;SDS011;55961;52.156;20.942;2023-03-23T09:30:55;9.13;;;4.70;;
68923;SDS011;55961;52.156;20.942;2023-03-23T09:33:23;12.27;;;5.20;;
68923;SDS011;55961;52.156;20.942;2023-03-23T09:35:49;7.55;;;4.07;;
68923;SDS011;55961;52.156;20.942;2023-03-23T09:38:15;8.55;;;3.95;;
68923;SDS011;55961;52.156;20.942;2023-03-23T09:40:45;9.67;;;4.07;;
68923;SDS011;55961;52.156;20.942;2023-03-23T09:43:47;11.68;;;4.05;;
68923;SDS011;55961;52.156;20.942;2023-03-23T09:49:23;10.07;;;5.00;;
68923;SDS011;55961;52.156;20.942;2023-03-23T09:52:02;8.13;;;4.07;;
68923;SDS011;55961;52.156;20.942;2023-03-23T09:57:02;9.25;;;5.10;;
68923;SDS011;55961;52.156;20.942;2023-03-23T09:59:31;12.05;;;4.55;;
68923;SDS011;55961;52.156;20.942;2023-03-23T10:02:11;10.70;;;4.50;;
68923;SDS011;55961;52.156;20.942;2023-03-23T10:04:40;7.20;;;3.95;;
68923;SDS011;55961;52.156;20.942;2023-03-23T10:07:12;8.50;;;4.37;;
68923;SDS011;55961;52.156;20.942;2023-03-23T10:09:40;6.85;;;4.18;;
68923;SDS011;55961;52.156;20.942;2023-03-23T10:12:56;7.45;;;3.53;;
68923;SDS011;55961;52.156;20.942;2023-03-23T10:15:10;9.10;;;4.25;;
68923;SDS011;55961;52.156;20.942;2023-03-23T10:17:42;9.32;;;4.82;;
68923;SDS011;55961;52.156;20.942;2023-03-23T10:22:53;8.77;;;5.20;;
68923;SDS011;55961;52.156;20.942;2023-03-23T10:25:26;10.75;;;5.25;;
68923;SDS011;55961;52.156;20.942;2023-03-23T10:30:30;8.15;;;4.60;;
68923;SDS011;55961;52.156;20.942;2023-03-23T10:33:04;8.07;;;4.30;;
68923;SDS011;55961;52.156;20.942;2023-03-23T10:35:43;7.88;;;3.47;;
68923;SDS011;55961;52.156;20.942;2023-03-23T10:38:25;8.25;;;3.50;;
68923;SDS011;55961;52.156;20.942;2023-03-23T10:41:04;7.68;;;3.45;;
68923;SDS011;55961;52.156;20.942;2023-03-23T10:43:41;6.07;;;2.88;;
68923;SDS011;55961;52.156;20.942;2023-03-23T10:48:40;7.25;;;2.90;;
68923;SDS011;55961;52.156;20.942;2023-03-23T10:51:09;5.75;;;3.38;;
68923;SDS011;55961;52.156;20.942;2023-03-23T10:53:42;7.38;;;3.17;;
68923;SDS011;55961;52.156;20.942;2023-03-23T10:56:22;6.50;;;3.07;;
68923;SDS011;55961;52.156;20.942;2023-03-23T10:58:53;9.07;;;3.28;;
68923;SDS011;55961;52.156;20.942;2023-03-23T11:01:27;8.90;;;3.63;;
68923;SDS011;55961;52.156;20.942;2023-03-23T11:03:58;7.18;;;3.08;;
68923;SDS011;55961;52.156;20.942;2023-03-23T11:06:30;5.78;;;3.08;;
68923;SDS011;55961;52.156;20.942;2023-03-23T11:09:15;7.23;;;3.10;;
68923;SDS011;55961;52.156;20.942;2023-03-23T11:11:50;6.68;;;3.20;;
68923;SDS011;55961;52.156;20.942;2023-03-23T11:14:19;8.23;;;3.67;;
68923;SDS011;55961;52.156;20.942;2023-03-23T11:16:50;6.82;;;3.40;;
68923;SDS011;55961;52.156;20.942;2023-03-23T11:19:24;7.38;;;3.20;;
68923;SDS011;55961;52.156;20.942;2023-03-23T11:21:53;8.10;;;4.00;;
68923;SDS011;55961;52.156;20.942;2023-03-23T11:24:25;6.70;;;3.00;;
68923;SDS011;55961;52.156;20.942;2023-03-23T11:26:52;6.55;;;3.33;;
68923;SDS011;55961;52.156;20.942;2023-03-23T11:29:23;6.03;;;3.30;;
68923;SDS011;55961;52.156;20.942;2023-03-23T11:34:43;6.17;;;2.53;;
68923;SDS011;55961;52.156;20.942;2023-03-23T11:37:14;6.63;;;3.08;;
68923;SDS011;55961;52.156;20.942;2023-03-23T11:39:53;4.45;;;2.10;;
68923;SDS011;55961;52.156;20.942;2023-03-23T11:42:24;6.60;;;2.80;;
68923;SDS011;55961;52.156;20.942;2023-03-23T11:48:09;4.03;;;1.90;;
68923;SDS011;55961;52.156;20.942;2023-03-23T11:50:50;5.25;;;2.10;;
68923;SDS011;55961;52.156;20.942;2023-03-23T11:56:15;6.20;;;1.80;;
68923;SDS011;55961;52.156;20.942;2023-03-23T11:58:38;3.60;;;1.88;;
68923;SDS011;55961;52.156;20.942;2023-03-23T12:01:09;5.23;;;1.93;;
68923;SDS011;55961;52.156;20.942;2023-03-23T12:04:00;5.85;;;3.08;;
68923;SDS011;55961;52.156;20.942;2023-03-23T12:12:11;5.13;;;2.80;;
68923;SDS011;55961;52.156;20.942;2023-03-23T12:30:36;5.47;;;2.78;;
68923;SDS011;55961;52.156;20.942;2023-03-23T12:33:23;5.22;;;2.65;;
68923;SDS011;55961;52.156;20.942;2023-03-23T12:44:31;6.53;;;2.92;;
68923;SDS011;55961;52.156;20.942;2023-03-23T12:47:09;7.45;;;3.08;;
68923;SDS011;55961;52.156;20.942;2023-03-23T12:49:52;8.82;;;3.20;;
68923;SDS011;55961;52.156;20.942;2023-03-23T12:52:42;7.53;;;3.40;;
68923;SDS011;55961;52.156;20.942;2023-03-23T12:55:42;6.57;;;2.50;;
68923;SDS011;55961;52.156;20.942;2023-03-23T12:58:19;6.50;;;3.42;;
68923;SDS011;55961;52.156;20.942;2023-03-23T13:00:58;4.95;;;2.72;;
68923;SDS011;55961;52.156;20.942;2023-03-23T13:03:55;7.55;;;3.20;;
68923;SDS011;55961;52.156;20.942;2023-03-23T13:06:37;6.45;;;3.33;;
68923;SDS011;55961;52.156;20.942;2023-03-23T13:11:48;7.38;;;2.88;;
68923;SDS011;55961;52.156;20.942;2023-03-23T13:23:14;7.80;;;4.20;;
68923;SDS011;55961;52.156;20.942;2023-03-23T13:25:50;7.07;;;3.40;;
68923;SDS011;55961;52.156;20.942;2023-03-23T13:28:27;7.55;;;3.28;;
68923;SDS011;55961;52.156;20.942;2023-03-23T13:31:00;6.50;;;2.47;;
68923;SDS011;55961;52.156;20.942;2023-03-23T13:33:33;5.40;;;2.40;;
68923;SDS011;55961;52.156;20.942;2023-03-23T13:36:02;5.53;;;2.43;;
68923;SDS011;55961;52.156;20.942;2023-03-23T13:38:33;8.30;;;2.90;;
68923;SDS011;55961;52.156;20.942;2023-03-23T13:41:05;10.52;;;3.00;;
68923;SDS011;55961;52.156;20.942;2023-03-23T13:43:34;5.25;;;2.08;;
68923;SDS011;55961;52.156;20.942;2023-03-23T13:48:48;5.27;;;1.93;;
68923;SDS011;55961;52.156;20.942;2023-03-23T13:51:26;4.47;;;2.25;;
68923;SDS011;55961;52.156;20.942;2023-03-23T13:54:03;5.30;;;2.45;;
68923;SDS011;55961;52.156;20.942;2023-03-23T13:56:36;6.72;;;2.47;;
68923;SDS011;55961;52.156;20.942;2023-03-23T13:59:16;6.00;;;2.30;;
68923;SDS011;55961;52.156;20.942;2023-03-23T14:01:54;5.10;;;2.00;;
68923;SDS011;55961;52.156;20.942;2023-03-23T14:04:21;5.32;;;2.00;;
68923;SDS011;55961;52.156;20.942;2023-03-23T14:06:56;6.18;;;2.30;;
68923;SDS011;55961;52.156;20.942;2023-03-23T14:12:34;5.60;;;2.53;;
68923;SDS011;55961;52.156;20.942;2023-03-23T14:14:46;6.22;;;2.33;;
68923;SDS011;55961;52.156;20.942;2023-03-23T14:17:19;6.80;;;2.47;;
68923;SDS011;55961;52.156;20.942;2023-03-23T14:19:50;5.63;;;2.80;;
68923;SDS011;55961;52.156;20.942;2023-03-23T14:24:52;5.78;;;2.50;;
68923;SDS011;55961;52.156;20.942;2023-03-23T14:27:24;6.95;;;2.60;;
68923;SDS011;55961;52.156;20.942;2023-03-23T14:29:58;6.32;;;2.45;;
68923;SDS011;55961;52.156;20.942;2023-03-23T14:32:26;5.43;;;2.28;;
68923;SDS011;55961;52.156;20.942;2023-03-23T14:34:54;5.43;;;2.60;;
68923;SDS011;55961;52.156;20.942;2023-03-23T14:37:20;7.10;;;2.85;;
68923;SDS011;55961;52.156;20.942;2023-03-23T14:39:49;6.25;;;2.95;;
68923;SDS011;55961;52.156;20.942;2023-03-23T14:42:19;7.75;;;2.90;;
68923;SDS011;55961;52.156;20.942;2023-03-23T14:45:04;6.63;;;2.90;;
68923;SDS011;55961;52.156;20.942;2023-03-23T14:47:33;6.25;;;2.95;;
68923;SDS011;55961;52.156;20.942;2023-03-23T14:50:04;7.88;;;3.05;;
68923;SDS011;55961;52.156;20.942;2023-03-23T14:52:36;6.72;;;2.83;;
68923;SDS011;55961;52.156;20.942;2023-03-23T14:55:13;11.30;;;2.92;;
68923;SDS011;55961;52.156;20.942;2023-03-23T14:57:45;6.17;;;2.80;;
68923;SDS011;55961;52.156;20.942;2023-03-23T15:00:12;7.53;;;2.65;;
68923;SDS011;55961;52.156;20.942;2023-03-23T15:02:52;6.70;;;4.10;;
68923;SDS011;55961;52.156;20.942;2023-03-23T15:05:22;8.00;;;3.55;;
68923;SDS011;55961;52.156;20.942;2023-03-23T15:08:05;7.38;;;3.70;;
68923;SDS011;55961;52.156;20.942;2023-03-23T15:10:33;6.63;;;3.40;;
68923;SDS011;55961;52.156;20.942;2023-03-23T15:12:59;7.60;;;3.65;;
68923;SDS011;55961;52.156;20.942;2023-03-23T15:15:32;7.10;;;3.58;;
68923;SDS011;55961;52.156;20.942;2023-03-23T15:18:00;6.05;;;3.28;;
68923;SDS011;55961;52.156;20.942;2023-03-23T15:20:28;8.35;;;3.55;;
68923;SDS011;55961;52.156;20.942;2023-03-23T15:22:57;6.27;;;3.77;;
68923;SDS011;55961;52.156;20.942;2023-03-23T15:25:32;10.57;;;4.47;;
68923;SDS011;55961;52.156;20.942;2023-03-23T15:30:46;11.38;;;4.90;;
68923;SDS011;55961;52.156;20.942;2023-03-23T15:33:15;8.00;;;4.15;;
68923;SDS011;55961;52.156;20.942;2023-03-23T15:35:46;9.93;;;4.70;;
68923;SDS011;55961;52.156;20.942;2023-03-23T15:38:23;8.20;;;4.25;;
68923;SDS011;55961;52.156;20.942;2023-03-23T15:40:58;9.85;;;3.70;;
68923;SDS011;55961;52.156;20.942;2023-03-23T15:43:33;9.05;;;4.25;;
68923;SDS011;55961;52.156;20.942;2023-03-23T15:48:48;9.63;;;4.50;;
68923;SDS011;55961;52.156;20.942;2023-03-23T15:51:35;8.40;;;4.35;;
68923;SDS011;55961;52.156;20.942;2023-03-23T15:54:02;9.00;;;4.50;;
68923;SDS011;55961;52.156;20.942;2023-03-23T15:56:28;10.07;;;4.90;;
68923;SDS011;55961;52.156;20.942;2023-03-23T15:58:56;9.90;;;4.72;;
68923;SDS011;55961;52.156;20.942;2023-03-23T16:01:28;8.17;;;4.40;;
68923;SDS011;55961;52.156;20.942;2023-03-23T16:06:26;8.27;;;4.35;;
68923;SDS011;55961;52.156;20.942;2023-03-23T16:08:54;7.93;;;4.35;;
68923;SDS011;55961;52.156;20.942;2023-03-23T16:11:21;7.25;;;4.07;;
68923;SDS011;55961;52.156;20.942;2023-03-23T16:13:48;8.57;;;4.20;;
68923;SDS011;55961;52.156;20.942;2023-03-23T16:18:42;7.60;;;4.03;;
68923;SDS011;55961;52.156;20.942;2023-03-23T16:21:08;9.85;;;3.85;;
68923;SDS011;55961;52.156;20.942;2023-03-23T16:23:34;6.93;;;3.67;;